Schedule Details


Flight Number: CTN701
Departure: Lisbon (LPPT) at 11:00
Arrival: Franjo Tudman (LDZA) at 15:10
Route: FTM?UP600?PRT?UL155?ZMR?UN976?LATEK?UN871?NINUN?UZ871?ETIDO?UL55?BLONA?Y11?KUMIN?M730?KODOK?Y11?LURUT?M859?CHI?M167?ROTAR?DCT?ABLAT?DCT?ARGOM

Weather Information
LPPT 251800Z 32011KT 9999 FEW030 23/15 Q1013
LDZA 251800Z 02004KT CAVOK 25/19 Q1018 NOSIG
Schedule Frequency

Route Map